| time (UTC) | temp C | wind direction | speed KPH | gust KPH | rain 1hr cm | rain 24hr cm | rain mn cm | humidity % | barometer mb |
| 20260507114504 | 19 | 164 | 8.0 | 19.3 | 0.00 | 0.00 | 0.00 | 66 | 1011.5 |
| 20260507113603 | 20 | 157 | 8.0 | 20.9 | 0.00 | 0.00 | 0.00 | 65 | 1011.5 |
| 20260507112703 | 21 | 153 | 9.7 | 25.7 | 0.00 | 0.00 | 0.00 | 64 | 1011.5 |
| 20260507111803 | 20 | 163 | 9.7 | 20.9 | 0.00 | 0.00 | 0.00 | 65 | 1011.6 |
| 20260507110904 | 20 | 156 | 4.8 | 14.5 | 0.00 | 0.00 | 0.00 | 68 | 1011.6 |
| 20260507110004 | 20 | 170 | 6.4 | 16.1 | 0.00 | 0.00 | 0.00 | 66 | 1011.6 |
| 20260507105404 | 20 | 173 | 6.4 | 16.1 | 0.00 | 0.00 | 0.00 | 65 | 1011.6 |
| 20260507104504 | 20 | 167 | 9.7 | 24.1 | 0.00 | 0.00 | 0.00 | 66 | 1011.7 |
| 20260507103603 | 19 | 159 | 9.7 | 17.7 | 0.00 | 0.00 | 0.00 | 65 | 1011.8 |
| 20260507102704 | 19 | 160 | 11.3 | 20.9 | 0.00 | 0.00 | 0.00 | 65 | 1011.9 |
| 20260507101804 | 18 | 170 | 9.7 | 19.3 | 0.00 | 0.00 | 0.00 | 68 | 1012.0 |
| 20260507100904 | 18 | 204 | 8.0 | 19.3 | 0.00 | 0.00 | 0.00 | 65 | 1012.1 |
| 20260507100004 | 18 | 165 | 4.8 | 19.3 | 0.00 | 0.00 | 0.00 | 70 | 1012.2 |
| 20260507095617 | 18 | 165 | 4.8 | 17.7 | 0.00 | 0.00 | 0.00 | 69 | 1012.3 |
| 20260507094504 | 17 | 182 | 8.0 | 16.1 | 0.00 | 0.00 | 0.00 | 70 | 1012.4 |
| 20260507093604 | 17 | 213 | 9.7 | 20.9 | 0.00 | 0.00 | 0.00 | 69 | 1012.6 |
| 20260507092704 | 18 | 186 | 8.0 | 19.3 | 0.00 | 0.00 | 0.00 | 67 | 1012.4 |
| 20260507091804 | 18 | 166 | 6.4 | 19.3 | 0.00 | 0.00 | 0.00 | 70 | 1012.5 |
| 20260507090904 | 17 | 218 | 4.8 | 17.7 | 0.00 | 0.00 | 0.00 | 73 | 1012.6 |
| 20260507090004 | 17 | 186 | 4.8 | 17.7 | 0.00 | 0.00 | 0.00 | 72 | 1012.6 |
| 20260507085403 | 17 | 188 | 4.8 | 17.7 | 0.00 | 0.00 | 0.00 | 72 | 1012.5 |
| 20260507084504 | 17 | 226 | 1.6 | 8.0 | 0.00 | 0.00 | 0.00 | 74 | 1012.6 |
| 20260507083603 | 16 | 53 | 3.2 | 16.1 | 0.00 | 0.00 | 0.00 | 77 | 1012.5 |
| 20260507082704 | 16 | 269 | 0.0 | 1.6 | 0.00 | 0.00 | 0.00 | 77 | 1012.6 |
| 20260507081804 | 16 | 0 | 0.0 | 0.0 | 0.00 | 0.00 | 0.00 | 77 | 1012.5 |
| 20260507080903 | 15 | 269 | 0.0 | 1.6 | 0.00 | 0.00 | 0.00 | 78 | 1012.5 |
| 20260507080004 | 15 | 270 | 0.0 | 3.2 | 0.00 | 0.00 | 0.00 | 78 | 1012.3 |
| 20260507075404 | 15 | 0 | 0.0 | 0.0 | 0.00 | 0.00 | 0.00 | 79 | 1012.3 |
| 20260507074503 | 15 | 0 | 0.0 | 0.0 | 0.00 | 0.00 | 0.00 | 80 | 1012.3 |
| 20260507073818 | 15 | 0 | 0.0 | 0.0 | 0.00 | 0.00 | 0.00 | 81 | 1012.2 |
| 20260507072703 | 15 | 0 | 0.0 | 0.0 | 0.00 | 0.00 | 0.00 | 80 | 1012.2 |
| 20260507071804 | 15 | 270 | 0.0 | 6.4 | 0.00 | 0.00 | 0.00 | 80 | 1012.3 |
| 20260507070904 | 15 | 270 | 1.6 | 8.0 | 0.00 | 0.00 | 0.00 | 79 | 1012.2 |
| 20260507070008 | 15 | 271 | 1.6 | 8.0 | 0.00 | 0.00 | 0.00 | 80 | 1012.0 |
| 20260507065403 | 15 | 272 | 1.6 | 9.7 | 0.00 | 0.00 | 0.00 | 80 | 1012.1 |
| 20260507064504 | 14 | 294 | 0.0 | 6.4 | 0.00 | 0.00 | 0.00 | 81 | 1012.0 |
| 20260507063603 | 14 | 0 | 0.0 | 0.0 | 0.00 | 0.00 | 0.00 | 84 | 1011.8 |
| 20260507062703 | 14 | 0 | 0.0 | 0.0 | 0.00 | 0.00 | 0.00 | 85 | 1011.7 |
| 20260507061804 | 13 | 0 | 0.0 | 0.0 | 0.00 | 0.00 | 0.00 | 86 | 1011.7 |
| 20260507060904 | 13 | 0 | 0.0 | 0.0 | 0.00 | 0.00 | 0.00 | 86 | 1011.8 |
| 20260507060004 | 13 | 0 | 0.0 | 0.0 | 0.00 | 0.00 | 0.00 | 86 | 1011.6 |
| 20260507055403 | 13 | 0 | 0.0 | 0.0 | 0.00 | 0.00 | 0.00 | 86 | 1011.6 |
| 20260507054504 | 13 | 0 | 0.0 | 0.0 | 0.00 | 0.00 | 0.00 | 87 | 1011.5 |
| 20260507053603 | 13 | 0 | 0.0 | 0.0 | 0.00 | 0.00 | 0.00 | 87 | 1011.4 |
| 20260507052703 | 13 | 0 | 0.0 | 0.0 | 0.00 | 0.00 | 0.00 | 87 | 1011.3 |
| 20260507051803 | 13 | 0 | 0.0 | 0.0 | 0.00 | 0.00 | 0.00 | 86 | 1011.3 |
| 20260507050904 | 13 | 0 | 0.0 | 0.0 | 0.00 | 0.00 | 0.00 | 85 | 1011.3 |
| 20260507050005 | 13 | 297 | 0.0 | 1.6 | 0.00 | 0.00 | 0.00 | 85 | 1011.2 |
| 20260507045403 | 13 | 297 | 0.0 | 1.6 | 0.00 | 0.00 | 0.00 | 84 | 1011.1 |
| 20260507044504 | 13 | 0 | 0.0 | 0.0 | 0.00 | 0.00 | 0.00 | 83 | 1011.1 |
| 20260507043603 | 13 | 0 | 0.0 | 0.0 | 0.00 | 0.00 | 0.00 | 83 | 1010.9 |
| 20260507042703 | 13 | 297 | 0.0 | 9.7 | 0.00 | 0.00 | 0.00 | 82 | 1010.7 |
| 20260507041804 | 13 | 297 | 3.2 | 14.5 | 0.00 | 0.00 | 0.00 | 82 | 1010.8 |
| 20260507040903 | 13 | 297 | 1.6 | 9.7 | 0.00 | 0.00 | 0.00 | 82 | 1010.7 |
| 20260507040004 | 13 | 293 | 1.6 | 9.7 | 0.00 | 0.00 | 0.00 | 82 | 1010.6 |
| 20260507035404 | 13 | 290 | 3.2 | 17.7 | 0.00 | 0.00 | 0.00 | 82 | 1010.7 |
| 20260507034718 | 13 | 285 | 4.8 | 17.7 | 0.00 | 0.00 | 0.00 | 82 | 1010.5 |
| 20260507033603 | 13 | 284 | 3.2 | 16.1 | 0.00 | 0.00 | 0.00 | 82 | 1010.5 |
| 20260507032703 | 13 | 279 | 8.0 | 14.5 | 0.00 | 0.00 | 0.00 | 81 | 1010.4 |
| 20260507031804 | 13 | 291 | 6.4 | 14.5 | 0.00 | 0.00 | 0.00 | 81 | 1010.3 |
| 20260507030903 | 13 | 295 | 6.4 | 12.9 | 0.00 | 0.00 | 0.00 | 81 | 1010.4 |
| 20260507030004 | 13 | 297 | 6.4 | 17.7 | 0.00 | 0.00 | 0.00 | 81 | 1010.4 |
| 20260507025403 | 13 | 305 | 4.8 | 16.1 | 0.00 | 0.00 | 0.00 | 81 | 1010.3 |
| 20260507024503 | 13 | 291 | 4.8 | 17.7 | 0.00 | 0.00 | 0.00 | 81 | 1010.3 |
| 20260507023603 | 13 | 288 | 4.8 | 14.5 | 0.00 | 0.00 | 0.00 | 81 | 1010.4 |
| 20260507022703 | 13 | 288 | 3.2 | 11.3 | 0.00 | 0.00 | 0.00 | 81 | 1010.3 |
| 20260507021803 | 13 | 285 | 4.8 | 19.3 | 0.00 | 0.00 | 0.00 | 82 | 1010.4 |
| 20260507020903 | 13 | 282 | 6.4 | 14.5 | 0.00 | 0.00 | 0.00 | 82 | 1010.4 |
| 20260507020004 | 12 | 279 | 4.8 | 16.1 | 0.00 | 0.00 | 0.00 | 82 | 1010.3 |
| 20260507015617 | 12 | 281 | 4.8 | 14.5 | 0.00 | 0.00 | 0.00 | 83 | 1010.4 |
| 20260507014503 | 12 | 272 | 1.6 | 8.0 | 0.00 | 0.00 | 0.00 | 84 | 1010.1 |
| 20260507013604 | 12 | 269 | 1.6 | 11.3 | 0.00 | 0.00 | 0.00 | 84 | 1010.2 |
| 20260507012703 | 13 | 0 | 0.0 | 0.0 | 0.00 | 0.00 | 0.00 | 83 | 1010.2 |
| 20260507012021 | 13 | 269 | 0.0 | 8.0 | 0.00 | 0.00 | 0.00 | 83 | 1010.1 |
| 20260507010903 | 13 | 269 | 1.6 | 9.7 | 0.00 | 0.00 | 0.00 | 82 | 1010.2 |
| 20260507010004 | 13 | 269 | 0.0 | 8.0 | 0.00 | 0.00 | 0.00 | 82 | 1010.2 |
| 20260507005403 | 13 | 269 | 0.0 | 9.7 | 0.00 | 0.00 | 0.00 | 82 | 1010.3 |
| 20260507004504 | 14 | 0 | 0.0 | 0.0 | 0.00 | 0.00 | 0.00 | 81 | 1010.3 |
| 20260507003603 | 14 | 268 | 0.0 | 8.0 | 0.00 | 0.00 | 0.00 | 80 | 1010.3 |
| 20260507002920 | 14 | 268 | 1.6 | 17.7 | 0.00 | 0.00 | 0.00 | 79 | 1010.4 |
| 20260507001803 | 15 | 269 | 3.2 | 14.5 | 0.00 | 0.00 | 0.00 | 77 | 1010.5 |
| 20260507000904 | 15 | 255 | 6.4 | 14.5 | 0.00 | 0.00 | 0.00 | 77 | 1010.3 |
| 20260507000004 | 15 | 243 | 8.0 | 16.1 | 0.00 | 0.00 | 0.00 | 77 | 1010.5 |
| 20260506235404 | 15 | 246 | 4.8 | 14.5 | 0.00 | 0.00 | 0.00 | 77 | 1010.6 |
| 20260506234721 | 15 | 214 | 3.2 | 11.3 | 0.00 | 0.00 | 0.00 | 78 | 1010.5 |
| 20260506233603 | 15 | 249 | 6.4 | 16.1 | 0.00 | 0.00 | 0.00 | 77 | 1010.7 |
| 20260506232704 | 15 | 261 | 9.7 | 16.1 | 0.00 | 0.00 | 0.00 | 77 | 1010.6 |
| 20260506231804 | 15 | 255 | 6.4 | 16.1 | 0.00 | 0.00 | 0.00 | 77 | 1010.7 |
| 20260506230904 | 15 | 265 | 6.4 | 16.1 | 0.00 | 0.00 | 0.00 | 78 | 1010.7 |
| 20260506230004 | 15 | 256 | 1.6 | 9.7 | 0.00 | 0.00 | 0.00 | 80 | 1010.6 |
| 20260506225404 | 15 | 239 | 3.2 | 11.3 | 0.00 | 0.00 | 0.00 | 79 | 1010.6 |
| 20260506224504 | 15 | 198 | 4.8 | 17.7 | 0.00 | 0.00 | 0.00 | 78 | 1010.5 |
| 20260506223603 | 15 | 250 | 8.0 | 16.1 | 0.00 | 0.00 | 0.00 | 79 | 1010.4 |
| 20260506222921 | 15 | 262 | 6.4 | 20.9 | 0.00 | 0.00 | 0.00 | 79 | 1010.3 |
| 20260506221804 | 15 | 263 | 6.4 | 14.5 | 0.00 | 0.00 | 0.00 | 80 | 1010.2 |
| 20260506221121 | 15 | 268 | 8.0 | 14.5 | 0.00 | 0.00 | 0.00 | 80 | 1010.1 |
| 20260506220022 | 15 | 293 | 4.8 | 16.1 | 0.00 | 0.00 | 0.00 | 81 | 1010.1 |
| 20260506215403 | 15 | 275 | 4.8 | 16.1 | 0.00 | 0.00 | 0.00 | 81 | 1010.0 |
| 20260506214504 | 15 | 278 | 6.4 | 14.5 | 0.00 | 0.00 | 0.00 | 80 | 1009.9 |
| 20260506213603 | 15 | 278 | 8.0 | 19.3 | 0.00 | 0.00 | 0.00 | 79 | 1010.0 |
| 20260506212703 | 15 | 275 | 6.4 | 16.1 | 0.00 | 0.00 | 0.00 | 78 | 1010.0 |
| 20260506211803 | 15 | 285 | 4.8 | 12.9 | 0.00 | 0.00 | 0.00 | 79 | 1009.9 |
| 20260506210904 | 15 | 271 | 3.2 | 9.7 | 0.00 | 0.00 | 0.00 | 79 | 1009.7 |
| 20260506210004 | 15 | 276 | 1.6 | 11.3 | 0.00 | 0.00 | 0.00 | 80 | 1009.7 |
| 20260506205403 | 15 | 280 | 3.2 | 16.1 | 0.00 | 0.00 | 0.00 | 79 | 1009.7 |
| 20260506204504 | 15 | 300 | 1.6 | 16.1 | 0.00 | 0.00 | 0.00 | 79 | 1009.5 |
| 20260506203604 | 15 | 286 | 4.8 | 16.1 | 0.00 | 0.00 | 0.00 | 78 | 1009.5 |
| 20260506202703 | 15 | 279 | 6.4 | 17.7 | 0.00 | 0.00 | 0.00 | 77 | 1009.6 |
| 20260506202020 | 15 | 252 | 3.2 | 12.9 | 0.00 | 0.00 | 0.00 | 78 | 1009.6 |
| 20260506200904 | 15 | 175 | 0.0 | 8.0 | 0.00 | 0.00 | 0.00 | 78 | 1009.4 |
| 20260506200004 | 15 | 186 | 3.2 | 12.9 | 0.00 | 0.00 | 0.00 | 78 | 1009.4 |
| 20260506195403 | 15 | 277 | 0.0 | 12.9 | 0.00 | 0.00 | 0.00 | 78 | 1009.3 |
| 20260506194504 | 15 | 279 | 1.6 | 9.7 | 0.00 | 0.00 | 0.00 | 77 | 1009.4 |
| 20260506193603 | 16 | 307 | 3.2 | 22.5 | 0.00 | 0.00 | 0.00 | 77 | 1009.3 |
| 20260506192703 | 15 | 30 | 3.2 | 14.5 | 0.00 | 0.00 | 0.00 | 77 | 1009.1 |
| 20260506192020 | 15 | 220 | 4.8 | 20.9 | 0.00 | 0.00 | 0.00 | 78 | 1009.2 |
| 20260506191117 | 15 | 184 | 3.2 | 20.9 | 0.00 | 0.00 | 0.00 | 78 | 1009.0 |
| 20260506190004 | 15 | 158 | 1.6 | 12.9 | 0.00 | 0.00 | 0.00 | 77 | 1008.8 |
| 20260506185621 | 15 | 160 | 1.6 | 12.9 | 0.00 | 0.00 | 0.00 | 78 | 1008.8 |
| 20260506184504 | 15 | 192 | 1.6 | 14.5 | 0.00 | 0.00 | 0.00 | 78 | 1008.6 |
| 20260506183603 | 16 | 156 | 0.0 | 14.5 | 0.00 | 0.00 | 0.00 | 77 | 1008.6 |
| 20260506182704 | 16 | 177 | 3.2 | 12.9 | 0.00 | 0.00 | 0.00 | 77 | 1008.6 |
| 20260506181804 | 16 | 285 | 3.2 | 12.9 | 0.00 | 0.00 | 0.00 | 77 | 1008.6 |
| 20260506180904 | 16 | 274 | 4.8 | 14.5 | 0.00 | 0.00 | 0.00 | 77 | 1008.5 |
| 20260506180005 | 16 | 265 | 1.6 | 14.5 | 0.00 | 0.00 | 0.00 | 76 | 1008.5 |
| 20260506175617 | 16 | 158 | 1.6 | 6.4 | 0.00 | 0.00 | 0.00 | 76 | 1008.5 |
| 20260506174504 | 16 | 248 | 11.3 | 30.6 | 0.00 | 0.00 | 0.00 | 76 | 1008.4 |
| 20260506173603 | 16 | 236 | 4.8 | 22.5 | 0.00 | 0.00 | 0.00 | 76 | 1008.6 |
| 20260506172704 | 16 | 272 | 6.4 | 14.5 | 0.00 | 0.00 | 0.00 | 76 | 1008.4 |
| 20260506172022 | 16 | 263 | 4.8 | 14.5 | 0.00 | 0.00 | 0.00 | 77 | 1008.5 |
| 20260506170903 | 16 | 280 | 3.2 | 11.3 | 0.00 | 0.00 | 0.00 | 77 | 1008.4 |
| 20260506170004 | 16 | 279 | 8.0 | 20.9 | 0.00 | 0.00 | 0.00 | 76 | 1008.6 |
| 20260506165404 | 16 | 269 | 6.4 | 22.5 | 0.00 | 0.00 | 0.00 | 76 | 1008.5 |
| 20260506164504 | 17 | 268 | 4.8 | 16.1 | 0.00 | 0.00 | 0.00 | 75 | 1008.6 |
| 20260506163603 | 17 | 274 | 6.4 | 14.5 | 0.00 | 0.00 | 0.00 | 74 | 1008.5 |
| 20260506162703 | 17 | 270 | 3.2 | 12.9 | 0.00 | 0.00 | 0.00 | 73 | 1008.7 |
| 20260506161803 | 17 | 271 | 6.4 | 12.9 | 0.00 | 0.00 | 0.00 | 73 | 1008.8 |
| 20260506161119 | 17 | 261 | 3.2 | 11.3 | 0.00 | 0.00 | 0.00 | 73 | 1009.0 |
| 20260506160004 | 17 | 276 | 6.4 | 29.0 | 0.00 | 0.00 | 0.00 | 72 | 1008.9 |
| 20260506155403 | 17 | 280 | 6.4 | 16.1 | 0.00 | 0.00 | 0.00 | 73 | 1008.9 |
| 20260506154504 | 17 | 271 | 8.0 | 20.9 | 0.00 | 0.00 | 0.00 | 72 | 1009.1 |
| 20260506153603 | 17 | 263 | 4.8 | 16.1 | 0.00 | 0.00 | 0.00 | 72 | 1009.1 |
| 20260506152703 | 17 | 251 | 6.4 | 32.2 | 0.00 | 0.00 | 0.00 | 72 | 1009.0 |
| 20260506151803 | 17 | 256 | 8.0 | 19.3 | 0.00 | 0.00 | 0.00 | 71 | 1009.0 |
| 20260506150904 | 17 | 280 | 6.4 | 20.9 | 0.00 | 0.00 | 0.00 | 71 | 1009.0 |
| 20260506150222 | 17 | 269 | 8.0 | 20.9 | 0.00 | 0.00 | 0.00 | 72 | 1009.1 |
| 20260506145403 | 17 | 264 | 9.7 | 33.8 | 0.00 | 0.00 | 0.00 | 71 | 1009.1 |
| 20260506144504 | 17 | 258 | 3.2 | 33.8 | 0.00 | 0.00 | 0.00 | 71 | 1009.2 |
| 20260506143603 | 17 | 265 | 1.6 | 6.4 | 0.00 | 0.00 | 0.00 | 72 | 1009.0 |
| 20260506142703 | 17 | 278 | 4.8 | 20.9 | 0.00 | 0.00 | 0.00 | 71 | 1009.2 |
| 20260506142018 | 17 | 308 | 1.6 | 8.0 | 0.00 | 0.00 | 0.00 | 72 | 1009.3 |
| 20260506140904 | 17 | 309 | 1.6 | 8.0 | 0.00 | 0.00 | 0.00 | 73 | 1009.4 |
| 20260506140004 | 17 | 313 | 3.2 | 11.3 | 0.00 | 0.00 | 0.00 | 71 | 1009.3 |
| 20260506135404 | 17 | 284 | 8.0 | 20.9 | 0.00 | 0.00 | 0.00 | 71 | 1009.4 |
| 20260506134504 | 17 | 274 | 6.4 | 22.5 | 0.00 | 0.00 | 0.00 | 72 | 1009.5 |
| 20260506133603 | 17 | 242 | 4.8 | 14.5 | 0.00 | 0.00 | 0.00 | 71 | 1009.6 |
| 20260506132704 | 17 | 265 | 4.8 | 14.5 | 0.00 | 0.00 | 0.00 | 72 | 1009.7 |
| 20260506132019 | 17 | 239 | 3.2 | 14.5 | 0.00 | 0.00 | 0.00 | 72 | 1009.7 |
| 20260506130904 | 17 | 201 | 4.8 | 20.9 | 0.00 | 0.00 | 0.00 | 71 | 1009.8 |
| 20260506130005 | 17 | 197 | 4.8 | 20.9 | 0.00 | 0.00 | 0.00 | 71 | 1009.9 |
| 20260506125620 | 17 | 243 | 3.2 | 17.7 | 0.00 | 0.00 | 0.00 | 71 | 1009.9 |
| 20260506124718 | 17 | 187 | 6.4 | 17.7 | 0.00 | 0.00 | 0.00 | 72 | 1010.0 |
| 20260506123603 | 17 | 183 | 6.4 | 20.9 | 0.00 | 0.00 | 0.00 | 71 | 1010.1 |
| 20260506122917 | 17 | 210 | 4.8 | 19.3 | 0.00 | 0.00 | 0.00 | 71 | 1010.0 |
| 20260506121804 | 17 | 164 | 1.6 | 14.5 | 0.00 | 0.00 | 0.00 | 71 | 1010.1 |
| 20260506121117 | 17 | 163 | 3.2 | 14.5 | 0.00 | 0.00 | 0.00 | 70 | 1010.0 |
| 20260506120004 | 17 | 156 | 4.8 | 16.1 | 0.00 | 0.00 | 0.00 | 70 | 1010.2 |
| 20260506115404 | 17 | 158 | 4.8 | 17.7 | 0.00 | 0.00 | 0.00 | 70 | 1010.1 |